CheckWX is a tool to help pilots better visualize weather data.  It is not intended as a substitute for an official pre-flight weather briefing.

15:14:14 UTC

KCWI METAR
Clinton Municipal Airport
Clinton, Iowa, USA
Current

18 mins ago

KCWI 261456Z AUTO 33007KT 10SM BKN023 BKN033 OVC100 18/14 A3008 RMK AO2 RAE21 SLP205 P0000 60000 T01830144 53028
Observed
May-26 @ 14:56 UTC
Wind
  • 330° at 7 KTS
Visibility
10 SM
Flight Rules
MVFR
Cloud Levels
  • Broken at 2,300' AGL
  • Broken at 3,300' AGL
  • Overcast at 10,000' AGL
Temperature
18°C / 64°F
Dewpoint
14°C / 57°F
Humidity
78%
Altimeter
30.08" Hg
Pressure
1018.62 hPa
Current Rain
0.01"
Previous

1 hour ago

KCWI 261356Z AUTO 04007KT 10SM -RA BKN110 17/14 A3003 RMK AO2 RAE02B54 SLP186 P0000 T01720144
Observed
May-26 @ 13:56 UTC
Wind
  • 040° at 7 KTS
Visibility
10 SM
Flight Rules
VFR
Conditions
Light Rain
Cloud Levels
  • Broken at 11,000' AGL
Temperature
17°C / 63°F
Dewpoint
14°C / 57°F
Humidity
83%
Altimeter
30.03" Hg
Pressure
1016.92 hPa
Current Rain
0.01"
Previous

2 hours ago

KCWI 261336Z AUTO 04007KT 10SM FEW024 BKN110 17/15 A3002 RMK AO2 RAE02 P0000
Observed
May-26 @ 13:36 UTC
Wind
  • 040° at 7 KTS
Visibility
10 SM
Flight Rules
VFR
Cloud Levels
  • Few at 2,400' AGL
  • Broken at 11,000' AGL
Temperature
17°C / 63°F
Dewpoint
15°C / 59°F
Humidity
88%
Altimeter
30.02" Hg
Pressure
1016.62 hPa
Current Rain
0.01"